sensor_id;sensor_type;location;lat;lon;timestamp;temperature;humidity
69589;SHT31;56792;50.644;17.984;2023-03-31T00:02:22;8.75;83.84
69589;SHT31;56792;50.644;17.984;2023-03-31T00:04:50;8.70;83.80
69589;SHT31;56792;50.644;17.984;2023-03-31T00:07:19;8.65;83.82
69589;SHT31;56792;50.644;17.984;2023-03-31T00:09:47;8.60;83.84
69589;SHT31;56792;50.644;17.984;2023-03-31T00:12:19;8.56;83.86
69589;SHT31;56792;50.644;17.984;2023-03-31T00:14:48;8.52;83.82
69589;SHT31;56792;50.644;17.984;2023-03-31T00:17:16;8.48;83.86
69589;SHT31;56792;50.644;17.984;2023-03-31T00:19:44;8.47;83.88
69589;SHT31;56792;50.644;17.984;2023-03-31T00:22:14;8.44;83.81
69589;SHT31;56792;50.644;17.984;2023-03-31T00:24:43;8.40;83.83
69589;SHT31;56792;50.644;17.984;2023-03-31T00:27:12;8.38;83.84
69589;SHT31;56792;50.644;17.984;2023-03-31T00:29:40;8.35;83.81
69589;SHT31;56792;50.644;17.984;2023-03-31T00:32:10;8.30;83.75
69589;SHT31;56792;50.644;17.984;2023-03-31T00:34:39;8.26;83.70
69589;SHT31;56792;50.644;17.984;2023-03-31T00:37:09;8.23;83.72
69589;SHT31;56792;50.644;17.984;2023-03-31T00:39:40;8.19;83.66
69589;SHT31;56792;50.644;17.984;2023-03-31T00:42:09;8.15;83.61
69589;SHT31;56792;50.644;17.984;2023-03-31T00:44:40;8.12;83.62
69589;SHT31;56792;50.644;17.984;2023-03-31T00:47:53;8.07;83.65
69589;SHT31;56792;50.644;17.984;2023-03-31T00:50:29;8.05;83.71
69589;SHT31;56792;50.644;17.984;2023-03-31T00:53:05;8.03;83.69
69589;SHT31;56792;50.644;17.984;2023-03-31T00:55:39;8.02;83.71
69589;SHT31;56792;50.644;17.984;2023-03-31T00:58:13;8.03;83.74
69589;SHT31;56792;50.644;17.984;2023-03-31T01:00:45;8.01;83.69
69589;SHT31;56792;50.644;17.984;2023-03-31T01:03:17;7.98;83.60
69589;SHT31;56792;50.644;17.984;2023-03-31T01:05:49;7.94;83.58
69589;SHT31;56792;50.644;17.984;2023-03-31T01:08:23;7.91;83.54
69589;SHT31;56792;50.644;17.984;2023-03-31T01:10:54;7.91;83.61
69589;SHT31;56792;50.644;17.984;2023-03-31T01:13:28;7.93;83.57
69589;SHT31;56792;50.644;17.984;2023-03-31T01:15:57;7.94;83.53
69589;SHT31;56792;50.644;17.984;2023-03-31T01:18:26;7.97;83.49
69589;SHT31;56792;50.644;17.984;2023-03-31T01:21:05;7.99;83.46
69589;SHT31;56792;50.644;17.984;2023-03-31T01:24:18;8.05;83.44
69589;SHT31;56792;50.644;17.984;2023-03-31T01:27:31;8.12;83.41
69589;SHT31;56792;50.644;17.984;2023-03-31T01:30:29;8.19;83.45
69589;SHT31;56792;50.644;17.984;2023-03-31T01:33:33;8.23;83.32
69589;SHT31;56792;50.644;17.984;2023-03-31T01:40:03;8.25;83.29
69589;SHT31;56792;50.644;17.984;2023-03-31T01:43:00;8.31;83.26
69589;SHT31;56792;50.644;17.984;2023-03-31T01:45:39;8.34;83.24
69589;SHT31;56792;50.644;17.984;2023-03-31T01:48:20;8.35;83.19
69589;SHT31;56792;50.644;17.984;2023-03-31T01:51:02;8.30;83.10
69589;SHT31;56792;50.644;17.984;2023-03-31T01:53:41;8.27;83.07
69589;SHT31;56792;50.644;17.984;2023-03-31T01:56:18;8.23;82.99
69589;SHT31;56792;50.644;17.984;2023-03-31T01:58:57;8.23;82.94
69589;SHT31;56792;50.644;17.984;2023-03-31T02:01:31;8.20;82.85
69589;SHT31;56792;50.644;17.984;2023-03-31T02:04:09;8.17;82.79
69589;SHT31;56792;50.644;17.984;2023-03-31T02:06:45;8.14;82.71
69589;SHT31;56792;50.644;17.984;2023-03-31T02:09:21;8.11;82.69
69589;SHT31;56792;50.644;17.984;2023-03-31T02:11:53;8.09;82.60
69589;SHT31;56792;50.644;17.984;2023-03-31T02:14:26;8.04;82.60
69589;SHT31;56792;50.644;17.984;2023-03-31T02:16:58;7.98;82.56
69589;SHT31;56792;50.644;17.984;2023-03-31T02:19:31;7.91;82.52
69589;SHT31;56792;50.644;17.984;2023-03-31T02:22:04;7.83;82.51
69589;SHT31;56792;50.644;17.984;2023-03-31T02:24:34;7.75;82.57
69589;SHT31;56792;50.644;17.984;2023-03-31T02:27:06;7.69;82.60
69589;SHT31;56792;50.644;17.984;2023-03-31T02:29:42;7.64;82.60
69589;SHT31;56792;50.644;17.984;2023-03-31T02:32:12;7.64;82.67
69589;SHT31;56792;50.644;17.984;2023-03-31T02:34:47;7.64;82.65
69589;SHT31;56792;50.644;17.984;2023-03-31T02:37:15;7.63;82.72
69589;SHT31;56792;50.644;17.984;2023-03-31T02:39:44;7.59;82.80
69589;SHT31;56792;50.644;17.984;2023-03-31T02:42:17;7.56;83.03
69589;SHT31;56792;50.644;17.984;2023-03-31T02:44:48;7.53;83.13
69589;SHT31;56792;50.644;17.984;2023-03-31T02:47:18;7.53;83.08
69589;SHT31;56792;50.644;17.984;2023-03-31T02:49:49;7.51;83.05
69589;SHT31;56792;50.644;17.984;2023-03-31T02:52:30;7.47;83.13
69589;SHT31;56792;50.644;17.984;2023-03-31T02:55:18;7.42;83.16
69589;SHT31;56792;50.644;17.984;2023-03-31T02:58:12;7.38;83.20
69589;SHT31;56792;50.644;17.984;2023-03-31T03:01:03;7.35;83.31
69589;SHT31;56792;50.644;17.984;2023-03-31T03:03:47;7.32;83.31
69589;SHT31;56792;50.644;17.984;2023-03-31T03:06:34;7.30;83.43
69589;SHT31;56792;50.644;17.984;2023-03-31T03:09:19;7.30;83.31
69589;SHT31;56792;50.644;17.984;2023-03-31T03:12:06;7.28;83.30
69589;SHT31;56792;50.644;17.984;2023-03-31T03:14:44;7.28;83.30
69589;SHT31;56792;50.644;17.984;2023-03-31T03:17:19;7.25;83.31
69589;SHT31;56792;50.644;17.984;2023-03-31T03:19:53;7.24;83.31
69589;SHT31;56792;50.644;17.984;2023-03-31T03:22:25;7.22;83.32
69589;SHT31;56792;50.644;17.984;2023-03-31T03:24:53;7.20;83.36
69589;SHT31;56792;50.644;17.984;2023-03-31T03:27:21;7.21;83.58
69589;SHT31;56792;50.644;17.984;2023-03-31T03:29:50;7.21;83.53
69589;SHT31;56792;50.644;17.984;2023-03-31T03:32:18;7.20;83.57
69589;SHT31;56792;50.644;17.984;2023-03-31T03:34:46;7.20;83.51
69589;SHT31;56792;50.644;17.984;2023-03-31T03:37:15;7.20;83.59
69589;SHT31;56792;50.644;17.984;2023-03-31T03:39:43;7.19;83.50
69589;SHT31;56792;50.644;17.984;2023-03-31T03:42:11;7.17;83.49
69589;SHT31;56792;50.644;17.984;2023-03-31T03:44:39;7.14;83.56
69589;SHT31;56792;50.644;17.984;2023-03-31T03:47:07;7.10;83.52
69589;SHT31;56792;50.644;17.984;2023-03-31T03:49:35;7.09;83.50
69589;SHT31;56792;50.644;17.984;2023-03-31T03:52:04;7.04;83.50
69589;SHT31;56792;50.644;17.984;2023-03-31T03:54:33;7.00;83.60
69589;SHT31;56792;50.644;17.984;2023-03-31T03:57:01;6.97;83.58
69589;SHT31;56792;50.644;17.984;2023-03-31T03:59:29;6.95;83.54
69589;SHT31;56792;50.644;17.984;2023-03-31T04:01:57;6.90;83.50
69589;SHT31;56792;50.644;17.984;2023-03-31T04:04:25;6.85;83.50
69589;SHT31;56792;50.644;17.984;2023-03-31T04:06:54;6.78;83.48
69589;SHT31;56792;50.644;17.984;2023-03-31T04:09:22;6.73;83.50
69589;SHT31;56792;50.644;17.984;2023-03-31T04:11:50;6.69;83.54
69589;SHT31;56792;50.644;17.984;2023-03-31T04:14:18;6.65;83.49
69589;SHT31;56792;50.644;17.984;2023-03-31T04:16:46;6.60;83.43
69589;SHT31;56792;50.644;17.984;2023-03-31T04:19:15;6.56;83.59
69589;SHT31;56792;50.644;17.984;2023-03-31T04:21:43;6.53;83.59
69589;SHT31;56792;50.644;17.984;2023-03-31T04:24:15;6.48;83.52
69589;SHT31;56792;50.644;17.984;2023-03-31T04:26:46;6.42;83.49
69589;SHT31;56792;50.644;17.984;2023-03-31T04:29:15;6.37;83.62
69589;SHT31;56792;50.644;17.984;2023-03-31T04:31:45;6.33;83.75
69589;SHT31;56792;50.644;17.984;2023-03-31T04:34:15;6.31;83.99
69589;SHT31;56792;50.644;17.984;2023-03-31T04:36:44;6.30;84.13
69589;SHT31;56792;50.644;17.984;2023-03-31T04:39:13;6.28;84.16
69589;SHT31;56792;50.644;17.984;2023-03-31T04:41:51;6.27;84.24
69589;SHT31;56792;50.644;17.984;2023-03-31T04:44:20;6.24;84.20
69589;SHT31;56792;50.644;17.984;2023-03-31T04:46:48;6.24;84.25
69589;SHT31;56792;50.644;17.984;2023-03-31T04:49:16;6.22;84.31
69589;SHT31;56792;50.644;17.984;2023-03-31T04:51:44;6.20;84.42
69589;SHT31;56792;50.644;17.984;2023-03-31T04:54:13;6.19;84.47
69589;SHT31;56792;50.644;17.984;2023-03-31T04:56:41;6.20;84.47
69589;SHT31;56792;50.644;17.984;2023-03-31T04:59:09;6.21;84.50
69589;SHT31;56792;50.644;17.984;2023-03-31T05:01:37;6.20;84.48
69589;SHT31;56792;50.644;17.984;2023-03-31T05:04:10;6.20;84.39
69589;SHT31;56792;50.644;17.984;2023-03-31T05:06:38;6.22;84.38
69589;SHT31;56792;50.644;17.984;2023-03-31T05:09:06;6.26;84.46
69589;SHT31;56792;50.644;17.984;2023-03-31T05:11:34;6.32;84.50
69589;SHT31;56792;50.644;17.984;2023-03-31T05:14:03;6.40;84.41
69589;SHT31;56792;50.644;17.984;2023-03-31T05:16:31;6.49;84.28
69589;SHT31;56792;50.644;17.984;2023-03-31T05:18:59;6.58;84.18
69589;SHT31;56792;50.644;17.984;2023-03-31T05:21:28;6.68;84.11
69589;SHT31;56792;50.644;17.984;2023-03-31T05:23:56;6.75;84.10
69589;SHT31;56792;50.644;17.984;2023-03-31T05:26:24;6.85;84.07
69589;SHT31;56792;50.644;17.984;2023-03-31T05:28:53;6.94;83.98
69589;SHT31;56792;50.644;17.984;2023-03-31T05:31:21;7.03;83.87
69589;SHT31;56792;50.644;17.984;2023-03-31T05:33:49;7.10;83.80
69589;SHT31;56792;50.644;17.984;2023-03-31T05:36:17;7.16;83.78
69589;SHT31;56792;50.644;17.984;2023-03-31T05:38:48;7.25;83.73
69589;SHT31;56792;50.644;17.984;2023-03-31T05:41:17;7.37;83.70
69589;SHT31;56792;50.644;17.984;2023-03-31T05:43:45;7.49;83.63
69589;SHT31;56792;50.644;17.984;2023-03-31T05:46:13;7.61;83.50
69589;SHT31;56792;50.644;17.984;2023-03-31T05:48:43;7.74;83.36
69589;SHT31;56792;50.644;17.984;2023-03-31T05:51:11;7.84;83.30
69589;SHT31;56792;50.644;17.984;2023-03-31T05:53:39;7.95;83.28
69589;SHT31;56792;50.644;17.984;2023-03-31T05:56:07;8.04;83.28
69589;SHT31;56792;50.644;17.984;2023-03-31T05:58:37;8.17;83.09
69589;SHT31;56792;50.644;17.984;2023-03-31T06:01:06;8.25;82.77
69589;SHT31;56792;50.644;17.984;2023-03-31T06:03:37;8.32;82.75
69589;SHT31;56792;50.644;17.984;2023-03-31T06:06:07;8.39;82.61
69589;SHT31;56792;50.644;17.984;2023-03-31T06:08:40;8.45;82.41
69589;SHT31;56792;50.644;17.984;2023-03-31T06:11:12;8.51;82.20
69589;SHT31;56792;50.644;17.984;2023-03-31T06:13:44;8.59;82.14
69589;SHT31;56792;50.644;17.984;2023-03-31T06:16:14;8.64;81.84
69589;SHT31;56792;50.644;17.984;2023-03-31T06:18:44;8.73;81.74
69589;SHT31;56792;50.644;17.984;2023-03-31T06:21:12;8.84;81.55
69589;SHT31;56792;50.644;17.984;2023-03-31T06:23:43;8.98;81.29
69589;SHT31;56792;50.644;17.984;2023-03-31T06:26:12;9.09;81.06
69589;SHT31;56792;50.644;17.984;2023-03-31T06:28:43;9.19;80.95
69589;SHT31;56792;50.644;17.984;2023-03-31T06:31:13;9.27;80.57
69589;SHT31;56792;50.644;17.984;2023-03-31T06:33:45;9.34;80.44
69589;SHT31;56792;50.644;17.984;2023-03-31T06:36:15;9.39;80.20
69589;SHT31;56792;50.644;17.984;2023-03-31T06:38:46;9.45;80.18
69589;SHT31;56792;50.644;17.984;2023-03-31T06:41:15;9.52;80.07
69589;SHT31;56792;50.644;17.984;2023-03-31T06:43:45;9.59;79.89
69589;SHT31;56792;50.644;17.984;2023-03-31T06:46:14;9.65;79.73
69589;SHT31;56792;50.644;17.984;2023-03-31T06:48:42;9.73;79.57
69589;SHT31;56792;50.644;17.984;2023-03-31T06:51:11;9.79;79.38
69589;SHT31;56792;50.644;17.984;2023-03-31T06:53:39;9.81;79.06
69589;SHT31;56792;50.644;17.984;2023-03-31T06:56:07;9.85;78.73
69589;SHT31;56792;50.644;17.984;2023-03-31T06:58:35;9.92;78.54
69589;SHT31;56792;50.644;17.984;2023-03-31T07:01:04;9.99;78.37
69589;SHT31;56792;50.644;17.984;2023-03-31T07:03:33;10.08;78.22
69589;SHT31;56792;50.644;17.984;2023-03-31T07:06:01;10.17;77.79
69589;SHT31;56792;50.644;17.984;2023-03-31T07:08:29;10.31;77.67
69589;SHT31;56792;50.644;17.984;2023-03-31T07:10:58;10.48;77.74
69589;SHT31;56792;50.644;17.984;2023-03-31T07:13:27;10.60;77.23
69589;SHT31;56792;50.644;17.984;2023-03-31T07:15:56;10.64;76.98
69589;SHT31;56792;50.644;17.984;2023-03-31T07:18:24;10.70;76.82
69589;SHT31;56792;50.644;17.984;2023-03-31T07:20:57;10.75;76.59
69589;SHT31;56792;50.644;17.984;2023-03-31T07:23:25;10.79;76.46
69589;SHT31;56792;50.644;17.984;2023-03-31T07:25:53;10.90;76.74
69589;SHT31;56792;50.644;17.984;2023-03-31T07:28:26;11.06;76.29
69589;SHT31;56792;50.644;17.984;2023-03-31T07:30:55;11.13;75.80
69589;SHT31;56792;50.644;17.984;2023-03-31T07:33:23;11.14;74.96
69589;SHT31;56792;50.644;17.984;2023-03-31T07:35:51;11.15;74.99
69589;SHT31;56792;50.644;17.984;2023-03-31T07:38:20;11.23;75.00
69589;SHT31;56792;50.644;17.984;2023-03-31T07:40:48;11.34;74.69
69589;SHT31;56792;50.644;17.984;2023-03-31T07:43:16;11.42;74.60
69589;SHT31;56792;50.644;17.984;2023-03-31T07:45:44;11.46;74.01
69589;SHT31;56792;50.644;17.984;2023-03-31T07:48:12;11.48;74.07
69589;SHT31;56792;50.644;17.984;2023-03-31T07:50:40;11.57;74.09
69589;SHT31;56792;50.644;17.984;2023-03-31T07:53:15;11.66;73.84
69589;SHT31;56792;50.644;17.984;2023-03-31T07:55:43;11.71;73.47
69589;SHT31;56792;50.644;17.984;2023-03-31T07:58:13;11.76;73.13
69589;SHT31;56792;50.644;17.984;2023-03-31T08:00:41;11.82;73.35
69589;SHT31;56792;50.644;17.984;2023-03-31T08:03:10;11.93;73.75
69589;SHT31;56792;50.644;17.984;2023-03-31T08:05:38;12.07;73.50
69589;SHT31;56792;50.644;17.984;2023-03-31T08:08:06;12.22;72.70
69589;SHT31;56792;50.644;17.984;2023-03-31T08:10:34;12.44;72.63
69589;SHT31;56792;50.644;17.984;2023-03-31T08:13:03;12.72;71.75
69589;SHT31;56792;50.644;17.984;2023-03-31T08:15:31;12.99;71.29
69589;SHT31;56792;50.644;17.984;2023-03-31T08:17:59;13.42;70.96
69589;SHT31;56792;50.644;17.984;2023-03-31T08:20:28;13.77;69.51
69589;SHT31;56792;50.644;17.984;2023-03-31T08:22:56;14.01;68.73
69589;SHT31;56792;50.644;17.984;2023-03-31T08:25:24;14.34;68.58
69589;SHT31;56792;50.644;17.984;2023-03-31T08:27:52;14.51;66.23
69589;SHT31;56792;50.644;17.984;2023-03-31T08:30:21;14.63;65.67
69589;SHT31;56792;50.644;17.984;2023-03-31T08:32:49;15.05;65.77
69589;SHT31;56792;50.644;17.984;2023-03-31T08:35:18;15.74;63.56
69589;SHT31;56792;50.644;17.984;2023-03-31T08:37:46;16.36;63.13
69589;SHT31;56792;50.644;17.984;2023-03-31T08:40:15;16.69;61.46
69589;SHT31;56792;50.644;17.984;2023-03-31T08:42:52;16.81;60.86
69589;SHT31;56792;50.644;17.984;2023-03-31T08:45:26;16.89;60.65
69589;SHT31;56792;50.644;17.984;2023-03-31T08:47:59;17.01;59.38
69589;SHT31;56792;50.644;17.984;2023-03-31T08:50:35;17.14;57.78
69589;SHT31;56792;50.644;17.984;2023-03-31T08:53:15;17.25;57.39
69589;SHT31;56792;50.644;17.984;2023-03-31T08:55:51;17.37;56.60
69589;SHT31;56792;50.644;17.984;2023-03-31T08:58:26;17.68;56.77
69589;SHT31;56792;50.644;17.984;2023-03-31T09:01:06;17.93;55.85
69589;SHT31;56792;50.644;17.984;2023-03-31T09:03:50;18.16;55.20
69589;SHT31;56792;50.644;17.984;2023-03-31T09:06:40;18.32;54.74
69589;SHT31;56792;50.644;17.984;2023-03-31T09:09:20;18.33;54.64
69589;SHT31;56792;50.644;17.984;2023-03-31T09:12:14;18.38;54.45
69589;SHT31;56792;50.644;17.984;2023-03-31T09:14:49;18.63;54.42
69589;SHT31;56792;50.644;17.984;2023-03-31T09:17:26;19.45;52.79
69589;SHT31;56792;50.644;17.984;2023-03-31T09:20:00;19.98;51.44
69589;SHT31;56792;50.644;17.984;2023-03-31T09:22:39;21.40;49.22
69589;SHT31;56792;50.644;17.984;2023-03-31T09:25:13;23.12;47.08
69589;SHT31;56792;50.644;17.984;2023-03-31T09:27:48;24.29;42.89
69589;SHT31;56792;50.644;17.984;2023-03-31T09:30:19;25.15;41.36
69589;SHT31;56792;50.644;17.984;2023-03-31T09:32:53;25.86;39.12
69589;SHT31;56792;50.644;17.984;2023-03-31T09:35:36;26.85;38.59
69589;SHT31;56792;50.644;17.984;2023-03-31T09:38:05;27.69;36.83
69589;SHT31;56792;50.644;17.984;2023-03-31T09:40:36;28.31;34.31
69589;SHT31;56792;50.644;17.984;2023-03-31T09:43:06;28.56;33.07
69589;SHT31;56792;50.644;17.984;2023-03-31T09:45:41;28.85;32.36
69589;SHT31;56792;50.644;17.984;2023-03-31T09:48:12;29.44;32.37
69589;SHT31;56792;50.644;17.984;2023-03-31T09:50:45;29.15;30.91
69589;SHT31;56792;50.644;17.984;2023-03-31T09:53:18;28.83;32.14
69589;SHT31;56792;50.644;17.984;2023-03-31T09:56:00;28.40;32.59
69589;SHT31;56792;50.644;17.984;2023-03-31T09:58:36;26.82;33.76
69589;SHT31;56792;50.644;17.984;2023-03-31T10:01:09;25.53;35.06
69589;SHT31;56792;50.644;17.984;2023-03-31T10:03:46;23.89;37.15
69589;SHT31;56792;50.644;17.984;2023-03-31T10:06:16;22.56;38.96
69589;SHT31;56792;50.644;17.984;2023-03-31T10:08:47;21.72;41.11
69589;SHT31;56792;50.644;17.984;2023-03-31T10:11:19;21.34;42.15
69589;SHT31;56792;50.644;17.984;2023-03-31T10:13:51;20.97;42.32
69589;SHT31;56792;50.644;17.984;2023-03-31T10:16:28;20.50;43.11
69589;SHT31;56792;50.644;17.984;2023-03-31T10:19:12;20.06;44.65
69589;SHT31;56792;50.644;17.984;2023-03-31T10:21:48;19.90;45.37
69589;SHT31;56792;50.644;17.984;2023-03-31T10:24:24;19.81;45.59
69589;SHT31;56792;50.644;17.984;2023-03-31T10:27:01;19.53;45.91
69589;SHT31;56792;50.644;17.984;2023-03-31T10:29:32;19.69;45.98
69589;SHT31;56792;50.644;17.984;2023-03-31T10:32:02;19.65;46.20
69589;SHT31;56792;50.644;17.984;2023-03-31T10:34:37;19.77;45.87
69589;SHT31;56792;50.644;17.984;2023-03-31T10:37:09;19.82;45.77
69589;SHT31;56792;50.644;17.984;2023-03-31T10:39:43;19.36;46.11
69589;SHT31;56792;50.644;17.984;2023-03-31T10:42:18;19.17;47.32
69589;SHT31;56792;50.644;17.984;2023-03-31T10:44:48;19.08;47.55
69589;SHT31;56792;50.644;17.984;2023-03-31T10:47:35;19.24;47.58
69589;SHT31;56792;50.644;17.984;2023-03-31T10:50:11;19.57;46.85
69589;SHT31;56792;50.644;17.984;2023-03-31T10:52:43;19.72;46.54
69589;SHT31;56792;50.644;17.984;2023-03-31T10:55:16;19.70;45.90
69589;SHT31;56792;50.644;17.984;2023-03-31T10:58:02;19.00;46.88
69589;SHT31;56792;50.644;17.984;2023-03-31T11:00:51;18.51;48.37
69589;SHT31;56792;50.644;17.984;2023-03-31T11:06:32;17.77;49.56
69589;SHT31;56792;50.644;17.984;2023-03-31T11:09:18;17.60;50.12
69589;SHT31;56792;50.644;17.984;2023-03-31T11:12:09;17.51;50.77
69589;SHT31;56792;50.644;17.984;2023-03-31T11:14:50;17.49;51.22
69589;SHT31;56792;50.644;17.984;2023-03-31T11:17:34;17.56;51.38
69589;SHT31;56792;50.644;17.984;2023-03-31T11:20:25;17.57;51.91
69589;SHT31;56792;50.644;17.984;2023-03-31T11:23:03;17.48;51.88
69589;SHT31;56792;50.644;17.984;2023-03-31T11:25:44;17.32;52.09
69589;SHT31;56792;50.644;17.984;2023-03-31T11:28:25;17.19;52.19
69589;SHT31;56792;50.644;17.984;2023-03-31T11:31:10;17.00;52.59
69589;SHT31;56792;50.644;17.984;2023-03-31T11:34:04;16.85;52.44
69589;SHT31;56792;50.644;17.984;2023-03-31T11:37:02;16.79;53.13
69589;SHT31;56792;50.644;17.984;2023-03-31T11:40:03;16.73;52.97
69589;SHT31;56792;50.644;17.984;2023-03-31T11:42:48;16.73;53.03
69589;SHT31;56792;50.644;17.984;2023-03-31T11:45:24;16.70;52.80
69589;SHT31;56792;50.644;17.984;2023-03-31T11:47:59;16.77;52.58
69589;SHT31;56792;50.644;17.984;2023-03-31T11:50:32;16.90;51.89
69589;SHT31;56792;50.644;17.984;2023-03-31T11:53:05;17.15;52.11
69589;SHT31;56792;50.644;17.984;2023-03-31T11:55:41;17.46;51.82
69589;SHT31;56792;50.644;17.984;2023-03-31T11:58:14;17.74;50.63
69589;SHT31;56792;50.644;17.984;2023-03-31T12:00:49;17.92;50.17
69589;SHT31;56792;50.644;17.984;2023-03-31T12:03:22;18.20;49.38
69589;SHT31;56792;50.644;17.984;2023-03-31T12:06:00;18.17;48.92
69589;SHT31;56792;50.644;17.984;2023-03-31T12:08:38;18.31;48.68
69589;SHT31;56792;50.644;17.984;2023-03-31T12:11:18;18.05;48.95
69589;SHT31;56792;50.644;17.984;2023-03-31T12:13:57;17.69;49.73
69589;SHT31;56792;50.644;17.984;2023-03-31T12:16:41;17.31;50.50
69589;SHT31;56792;50.644;17.984;2023-03-31T12:19:13;17.05;51.83
69589;SHT31;56792;50.644;17.984;2023-03-31T12:21:48;16.85;52.48
69589;SHT31;56792;50.644;17.984;2023-03-31T12:24:22;16.63;54.16
69589;SHT31;56792;50.644;17.984;2023-03-31T12:26:53;16.30;57.21
69589;SHT31;56792;50.644;17.984;2023-03-31T12:29:33;16.09;58.18
69589;SHT31;56792;50.644;17.984;2023-03-31T12:32:08;15.95;58.14
69589;SHT31;56792;50.644;17.984;2023-03-31T12:34:43;15.81;58.74
69589;SHT31;56792;50.644;17.984;2023-03-31T12:37:23;15.66;59.40
69589;SHT31;56792;50.644;17.984;2023-03-31T12:40:22;15.47;60.36
69589;SHT31;56792;50.644;17.984;2023-03-31T12:43:10;15.40;60.93
69589;SHT31;56792;50.644;17.984;2023-03-31T12:45:54;15.39;61.51
69589;SHT31;56792;50.644;17.984;2023-03-31T12:52:01;15.45;62.23
69589;SHT31;56792;50.644;17.984;2023-03-31T12:54:34;15.59;61.95
69589;SHT31;56792;50.644;17.984;2023-03-31T12:57:34;15.65;61.88
69589;SHT31;56792;50.644;17.984;2023-03-31T13:00:24;15.71;62.21
69589;SHT31;56792;50.644;17.984;2023-03-31T13:06:07;15.67;62.45
69589;SHT31;56792;50.644;17.984;2023-03-31T13:08:58;15.64;63.69
69589;SHT31;56792;50.644;17.984;2023-03-31T13:11:38;15.63;64.28
69589;SHT31;56792;50.644;17.984;2023-03-31T13:14:13;15.53;64.85
69589;SHT31;56792;50.644;17.984;2023-03-31T13:16:47;15.39;64.91
69589;SHT31;56792;50.644;17.984;2023-03-31T13:19:25;15.23;65.09
69589;SHT31;56792;50.644;17.984;2023-03-31T13:21:58;15.04;64.97
69589;SHT31;56792;50.644;17.984;2023-03-31T13:24:29;14.91;65.28
69589;SHT31;56792;50.644;17.984;2023-03-31T13:27:02;14.82;65.60
69589;SHT31;56792;50.644;17.984;2023-03-31T13:29:58;14.73;65.73
69589;SHT31;56792;50.644;17.984;2023-03-31T13:32:26;14.64;66.15
69589;SHT31;56792;50.644;17.984;2023-03-31T13:34:56;14.53;66.96
69589;SHT31;56792;50.644;17.984;2023-03-31T13:37:54;14.51;67.28
69589;SHT31;56792;50.644;17.984;2023-03-31T13:40:43;14.61;66.95
69589;SHT31;56792;50.644;17.984;2023-03-31T13:43:37;14.64;67.37
69589;SHT31;56792;50.644;17.984;2023-03-31T13:46:29;14.55;67.72
69589;SHT31;56792;50.644;17.984;2023-03-31T13:49:23;14.55;68.00
69589;SHT31;56792;50.644;17.984;2023-03-31T13:52:19;14.47;68.64
69589;SHT31;56792;50.644;17.984;2023-03-31T13:58:22;14.32;69.76
69589;SHT31;56792;50.644;17.984;2023-03-31T14:04:21;14.08;71.51
69589;SHT31;56792;50.644;17.984;2023-03-31T14:07:14;13.89;72.80
69589;SHT31;56792;50.644;17.984;2023-03-31T14:09:48;13.72;73.27
69589;SHT31;56792;50.644;17.984;2023-03-31T14:12:20;13.65;73.23
69589;SHT31;56792;50.644;17.984;2023-03-31T14:14:57;13.54;73.54
69589;SHT31;56792;50.644;17.984;2023-03-31T14:17:26;13.45;73.77
69589;SHT31;56792;50.644;17.984;2023-03-31T14:20:05;13.39;74.09
69589;SHT31;56792;50.644;17.984;2023-03-31T14:22:53;13.34;74.35
69589;SHT31;56792;50.644;17.984;2023-03-31T14:25:36;13.26;74.61
69589;SHT31;56792;50.644;17.984;2023-03-31T14:28:19;13.18;74.89
69589;SHT31;56792;50.644;17.984;2023-03-31T14:31:20;13.09;75.04
69589;SHT31;56792;50.644;17.984;2023-03-31T14:34:07;13.03;75.24
69589;SHT31;56792;50.644;17.984;2023-03-31T14:36:51;12.96;75.32
69589;SHT31;56792;50.644;17.984;2023-03-31T14:39:26;12.95;75.52
69589;SHT31;56792;50.644;17.984;2023-03-31T14:41:59;13.02;75.48
69589;SHT31;56792;50.644;17.984;2023-03-31T14:44:35;13.03;75.31
69589;SHT31;56792;50.644;17.984;2023-03-31T14:47:05;12.97;75.48
69589;SHT31;56792;50.644;17.984;2023-03-31T14:49:40;12.92;75.57
69589;SHT31;56792;50.644;17.984;2023-03-31T14:52:13;12.88;75.67
69589;SHT31;56792;50.644;17.984;2023-03-31T14:54:45;12.83;75.89
69589;SHT31;56792;50.644;17.984;2023-03-31T14:57:15;12.78;76.22
69589;SHT31;56792;50.644;17.984;2023-03-31T14:59:47;12.76;76.40
69589;SHT31;56792;50.644;17.984;2023-03-31T15:02:19;12.74;76.38
69589;SHT31;56792;50.644;17.984;2023-03-31T15:04:58;12.74;76.41
69589;SHT31;56792;50.644;17.984;2023-03-31T15:07:32;12.76;76.37
69589;SHT31;56792;50.644;17.984;2023-03-31T15:10:01;12.77;76.39
69589;SHT31;56792;50.644;17.984;2023-03-31T15:12:31;12.85;76.18
69589;SHT31;56792;50.644;17.984;2023-03-31T15:15:03;12.90;76.02
69589;SHT31;56792;50.644;17.984;2023-03-31T15:17:36;12.90;76.30
69589;SHT31;56792;50.644;17.984;2023-03-31T15:20:23;12.89;76.24
69589;SHT31;56792;50.644;17.984;2023-03-31T15:22:56;12.90;76.23
69589;SHT31;56792;50.644;17.984;2023-03-31T15:25:28;12.91;76.18
69589;SHT31;56792;50.644;17.984;2023-03-31T15:28:03;12.96;76.22
69589;SHT31;56792;50.644;17.984;2023-03-31T15:30:37;13.07;75.97
69589;SHT31;56792;50.644;17.984;2023-03-31T15:33:06;13.07;75.81
69589;SHT31;56792;50.644;17.984;2023-03-31T15:35:44;13.02;75.65
69589;SHT31;56792;50.644;17.984;2023-03-31T15:38:13;12.96;75.64
69589;SHT31;56792;50.644;17.984;2023-03-31T15:40:43;12.90;75.93
69589;SHT31;56792;50.644;17.984;2023-03-31T15:43:17;12.86;75.98
69589;SHT31;56792;50.644;17.984;2023-03-31T15:45:56;12.81;75.72
69589;SHT31;56792;50.644;17.984;2023-03-31T15:48:26;12.77;75.18
69589;SHT31;56792;50.644;17.984;2023-03-31T15:50:59;12.73;74.63
69589;SHT31;56792;50.644;17.984;2023-03-31T15:53:35;12.69;73.19
69589;SHT31;56792;50.644;17.984;2023-03-31T15:56:09;12.67;73.28
69589;SHT31;56792;50.644;17.984;2023-03-31T15:58:56;12.69;72.91
69589;SHT31;56792;50.644;17.984;2023-03-31T16:01:27;12.71;72.43
69589;SHT31;56792;50.644;17.984;2023-03-31T16:03:59;12.64;71.81
69589;SHT31;56792;50.644;17.984;2023-03-31T16:06:33;12.57;71.57
69589;SHT31;56792;50.644;17.984;2023-03-31T16:09:10;12.51;71.35
69589;SHT31;56792;50.644;17.984;2023-03-31T16:11:44;12.47;71.41
69589;SHT31;56792;50.644;17.984;2023-03-31T16:14:18;12.44;71.23
69589;SHT31;56792;50.644;17.984;2023-03-31T16:16:51;12.42;71.28
69589;SHT31;56792;50.644;17.984;2023-03-31T16:19:27;12.39;71.95
69589;SHT31;56792;50.644;17.984;2023-03-31T16:22:10;12.35;72.67
69589;SHT31;56792;50.644;17.984;2023-03-31T16:24:46;12.32;72.91
69589;SHT31;56792;50.644;17.984;2023-03-31T16:27:15;12.31;72.86
69589;SHT31;56792;50.644;17.984;2023-03-31T16:29:43;12.33;72.88